sensor_id;sensor_type;location;lat;lon;timestamp;pressure;altitude;pressure_sealevel;temperature;humidity
18436;BME280;9346;52.006;4.720;2023-06-10T00:00:30;101351.13;;;22.66;100.00
18436;BME280;9346;52.006;4.720;2023-06-10T00:02:57;101352.16;;;22.61;100.00
18436;BME280;9346;52.006;4.720;2023-06-10T00:05:24;101356.31;;;22.55;100.00
18436;BME280;9346;52.006;4.720;2023-06-10T00:07:55;101357.84;;;22.53;100.00
18436;BME280;9346;52.006;4.720;2023-06-10T00:10:22;101356.84;;;22.49;100.00
18436;BME280;9346;52.006;4.720;2023-06-10T00:12:50;101355.88;;;22.45;100.00
18436;BME280;9346;52.006;4.720;2023-06-10T00:15:19;101353.28;;;22.40;100.00
18436;BME280;9346;52.006;4.720;2023-06-10T00:17:45;101358.91;;;22.40;100.00
18436;BME280;9346;52.006;4.720;2023-06-10T00:20:12;101360.75;;;22.36;100.00
18436;BME280;9346;52.006;4.720;2023-06-10T00:22:40;101353.34;;;22.31;100.00
18436;BME280;9346;52.006;4.720;2023-06-10T00:25:11;101354.84;;;22.29;100.00
18436;BME280;9346;52.006;4.720;2023-06-10T00:27:38;101350.38;;;22.28;100.00
18436;BME280;9346;52.006;4.720;2023-06-10T00:30:06;101356.66;;;22.25;100.00
18436;BME280;9346;52.006;4.720;2023-06-10T00:32:35;101354.88;;;22.20;100.00
18436;BME280;9346;52.006;4.720;2023-06-10T00:35:03;101349.16;;;22.17;100.00
18436;BME280;9346;52.006;4.720;2023-06-10T00:37:30;101349.00;;;22.13;100.00
18436;BME280;9346;52.006;4.720;2023-06-10T00:39:57;101351.66;;;22.10;100.00
18436;BME280;9346;52.006;4.720;2023-06-10T00:42:24;101357.97;;;22.07;100.00
18436;BME280;9346;52.006;4.720;2023-06-10T00:44:51;101351.84;;;22.05;100.00
18436;BME280;9346;52.006;4.720;2023-06-10T00:47:18;101349.72;;;22.02;100.00
18436;BME280;9346;52.006;4.720;2023-06-10T00:49:47;101349.22;;;21.99;100.00
18436;BME280;9346;52.006;4.720;2023-06-10T00:52:14;101348.41;;;21.99;100.00
18436;BME280;9346;52.006;4.720;2023-06-10T00:54:43;101348.25;;;21.95;100.00
18436;BME280;9346;52.006;4.720;2023-06-10T00:57:11;101355.38;;;21.93;100.00
18436;BME280;9346;52.006;4.720;2023-06-10T00:59:39;101352.41;;;21.89;100.00
18436;BME280;9346;52.006;4.720;2023-06-10T01:02:07;101347.47;;;21.86;100.00
18436;BME280;9346;52.006;4.720;2023-06-10T01:04:34;101347.69;;;21.81;100.00
18436;BME280;9346;52.006;4.720;2023-06-10T01:07:11;101357.09;;;21.77;100.00
18436;BME280;9346;52.006;4.720;2023-06-10T01:09:45;101345.72;;;21.73;100.00
18436;BME280;9346;52.006;4.720;2023-06-10T01:12:19;101345.56;;;21.70;100.00
18436;BME280;9346;52.006;4.720;2023-06-10T01:14:50;101345.91;;;21.68;100.00
18436;BME280;9346;52.006;4.720;2023-06-10T01:17:17;101340.47;;;21.63;100.00
18436;BME280;9346;52.006;4.720;2023-06-10T01:19:53;101347.22;;;21.62;100.00
18436;BME280;9346;52.006;4.720;2023-06-10T01:22:23;101353.50;;;21.59;100.00
18436;BME280;9346;52.006;4.720;2023-06-10T01:24:51;101351.38;;;21.56;100.00
18436;BME280;9346;52.006;4.720;2023-06-10T01:27:21;101351.72;;;21.55;100.00
18436;BME280;9346;52.006;4.720;2023-06-10T01:29:52;101353.22;;;21.52;100.00
18436;BME280;9346;52.006;4.720;2023-06-10T01:32:27;101357.53;;;21.50;100.00
18436;BME280;9346;52.006;4.720;2023-06-10T01:34:57;101352.59;;;21.47;100.00
18436;BME280;9346;52.006;4.720;2023-06-10T01:37:26;101354.06;;;21.44;100.00
18436;BME280;9346;52.006;4.720;2023-06-10T01:39:55;101357.19;;;21.43;100.00
18436;BME280;9346;52.006;4.720;2023-06-10T01:42:24;101353.41;;;21.39;100.00
18436;BME280;9346;52.006;4.720;2023-06-10T01:44:52;101349.81;;;21.38;100.00
18436;BME280;9346;52.006;4.720;2023-06-10T01:47:19;101353.75;;;21.37;100.00
18436;BME280;9346;52.006;4.720;2023-06-10T01:49:46;101361.69;;;21.35;100.00
18436;BME280;9346;52.006;4.720;2023-06-10T01:52:13;101355.56;;;21.33;100.00
18436;BME280;9346;52.006;4.720;2023-06-10T01:54:42;101351.81;;;21.29;100.00
18436;BME280;9346;52.006;4.720;2023-06-10T01:57:09;101351.31;;;21.27;100.00
18436;BME280;9346;52.006;4.720;2023-06-10T01:59:36;101348.03;;;21.25;100.00
18436;BME280;9346;52.006;4.720;2023-06-10T02:02:05;101348.38;;;21.24;100.00
18436;BME280;9346;52.006;4.720;2023-06-10T02:04:32;101351.50;;;21.22;100.00
18436;BME280;9346;52.006;4.720;2023-06-10T02:06:59;101349.69;;;21.18;100.00
18436;BME280;9346;52.006;4.720;2023-06-10T02:09:29;101357.59;;;21.16;100.00
18436;BME280;9346;52.006;4.720;2023-06-10T02:11:58;101355.13;;;21.14;100.00
18436;BME280;9346;52.006;4.720;2023-06-10T02:14:25;101355.31;;;21.09;100.00
18436;BME280;9346;52.006;4.720;2023-06-10T02:16:52;101352.84;;;21.08;100.00
18436;BME280;9346;52.006;4.720;2023-06-10T02:19:21;101350.38;;;21.06;100.00
18436;BME280;9346;52.006;4.720;2023-06-10T02:21:48;101358.28;;;21.04;100.00
18436;BME280;9346;52.006;4.720;2023-06-10T02:24:16;101355.31;;;21.01;100.00
18436;BME280;9346;52.006;4.720;2023-06-10T02:26:43;101361.91;;;20.96;100.00
18436;BME280;9346;52.006;4.720;2023-06-10T02:29:11;101360.59;;;20.94;100.00
18436;BME280;9346;52.006;4.720;2023-06-10T02:31:38;101367.03;;;20.94;100.00
18436;BME280;9346;52.006;4.720;2023-06-10T02:34:06;101363.06;;;20.95;100.00
18436;BME280;9346;52.006;4.720;2023-06-10T02:36:33;101364.00;;;20.91;100.00
18436;BME280;9346;52.006;4.720;2023-06-10T02:39:01;101362.69;;;20.88;100.00
18436;BME280;9346;52.006;4.720;2023-06-10T02:41:28;101358.59;;;20.86;100.00
18436;BME280;9346;52.006;4.720;2023-06-10T02:43:55;101362.53;;;20.85;100.00
18436;BME280;9346;52.006;4.720;2023-06-10T02:46:24;101366.81;;;20.82;100.00
18436;BME280;9346;52.006;4.720;2023-06-10T02:48:51;101363.03;;;20.78;100.00
18436;BME280;9346;52.006;4.720;2023-06-10T02:51:18;101360.56;;;20.77;100.00
18436;BME280;9346;52.006;4.720;2023-06-10T02:53:46;101363.19;;;20.73;100.00
18436;BME280;9346;52.006;4.720;2023-06-10T02:56:15;101360.25;;;20.70;100.00
18436;BME280;9346;52.006;4.720;2023-06-10T02:58:42;101356.78;;;20.64;100.00
18436;BME280;9346;52.006;4.720;2023-06-10T03:01:09;101363.03;;;20.61;100.00
18436;BME280;9346;52.006;4.720;2023-06-10T03:03:38;101365.34;;;20.59;100.00
18436;BME280;9346;52.006;4.720;2023-06-10T03:06:07;101356.75;;;20.56;100.00
18436;BME280;9346;52.006;4.720;2023-06-10T03:08:35;101355.44;;;20.53;100.00
18436;BME280;9346;52.006;4.720;2023-06-10T03:11:02;101360.25;;;20.53;100.00
18436;BME280;9346;52.006;4.720;2023-06-10T03:13:30;101357.78;;;20.51;100.00
18436;BME280;9346;52.006;4.720;2023-06-10T03:15:56;101369.63;;;20.48;100.00
18436;BME280;9346;52.006;4.720;2023-06-10T03:18:26;101369.13;;;20.46;100.00
18436;BME280;9346;52.006;4.720;2023-06-10T03:20:55;101364.69;;;20.45;100.00
18436;BME280;9346;52.006;4.720;2023-06-10T03:23:22;101361.03;;;20.45;100.00
18436;BME280;9346;52.006;4.720;2023-06-10T03:25:49;101367.81;;;20.44;100.00
18436;BME280;9346;52.006;4.720;2023-06-10T03:28:16;101366.97;;;20.43;100.00
18436;BME280;9346;52.006;4.720;2023-06-10T03:30:43;101367.63;;;20.40;100.00
18436;BME280;9346;52.006;4.720;2023-06-10T03:33:10;101375.50;;;20.38;100.00
18436;BME280;9346;52.006;4.720;2023-06-10T03:35:37;101373.88;;;20.37;100.00
18436;BME280;9346;52.006;4.720;2023-06-10T03:38:06;101376.84;;;20.32;100.00
18436;BME280;9346;52.006;4.720;2023-06-10T03:40:33;101375.16;;;20.31;100.00
18436;BME280;9346;52.006;4.720;2023-06-10T03:43:01;101385.88;;;20.29;100.00
18436;BME280;9346;52.006;4.720;2023-06-10T03:45:28;101385.38;;;20.27;100.00
18436;BME280;9346;52.006;4.720;2023-06-10T03:47:55;101376.47;;;20.25;100.00
18436;BME280;9346;52.006;4.720;2023-06-10T03:50:22;101384.38;;;20.23;100.00
18436;BME280;9346;52.006;4.720;2023-06-10T03:52:50;101385.03;;;20.20;100.00
18436;BME280;9346;52.006;4.720;2023-06-10T03:55:19;101385.16;;;20.15;100.00
18436;BME280;9346;52.006;4.720;2023-06-10T03:57:47;101395.03;;;20.13;100.00
18436;BME280;9346;52.006;4.720;2023-06-10T04:00:15;101385.31;;;20.10;100.00
18436;BME280;9346;52.006;4.720;2023-06-10T04:02:43;101383.63;;;20.09;100.00
18436;BME280;9346;52.006;4.720;2023-06-10T04:05:14;101386.78;;;20.08;100.00
18436;BME280;9346;52.006;4.720;2023-06-10T04:07:41;101397.13;;;20.07;100.00
18436;BME280;9346;52.006;4.720;2023-06-10T04:10:09;101387.09;;;20.06;100.00
18436;BME280;9346;52.006;4.720;2023-06-10T04:12:39;101391.34;;;20.04;100.00
18436;BME280;9346;52.006;4.720;2023-06-10T04:15:07;101384.97;;;20.03;100.00
18436;BME280;9346;52.006;4.720;2023-06-10T04:17:34;101389.38;;;20.04;100.00
18436;BME280;9346;52.006;4.720;2023-06-10T04:20:01;101393.03;;;20.05;100.00
18436;BME280;9346;52.006;4.720;2023-06-10T04:22:31;101397.78;;;20.04;100.00
18436;BME280;9346;52.006;4.720;2023-06-10T04:24:58;101406.50;;;20.03;100.00
18436;BME280;9346;52.006;4.720;2023-06-10T04:27:26;101402.53;;;20.04;100.00
18436;BME280;9346;52.006;4.720;2023-06-10T04:29:54;101410.44;;;20.02;100.00
18436;BME280;9346;52.006;4.720;2023-06-10T04:32:21;101410.44;;;20.02;100.00
18436;BME280;9346;52.006;4.720;2023-06-10T04:34:48;101411.09;;;19.99;100.00
18436;BME280;9346;52.006;4.720;2023-06-10T04:37:15;101413.06;;;19.98;100.00
18436;BME280;9346;52.006;4.720;2023-06-10T04:39:43;101410.78;;;20.00;100.00
18436;BME280;9346;52.006;4.720;2023-06-10T04:42:10;101408.78;;;20.01;100.00
18436;BME280;9346;52.006;4.720;2023-06-10T04:44:37;101413.25;;;20.02;100.00
18436;BME280;9346;52.006;4.720;2023-06-10T04:47:06;101414.38;;;20.01;100.00
18436;BME280;9346;52.006;4.720;2023-06-10T04:49:33;101413.56;;;20.00;100.00
18436;BME280;9346;52.006;4.720;2023-06-10T04:52:00;101415.22;;;20.01;100.00
18436;BME280;9346;52.006;4.720;2023-06-10T04:54:30;101418.50;;;20.03;100.00
18436;BME280;9346;52.006;4.720;2023-06-10T04:56:58;101414.88;;;20.03;100.00
18436;BME280;9346;52.006;4.720;2023-06-10T04:59:25;101414.03;;;20.02;100.00
18436;BME280;9346;52.006;4.720;2023-06-10T05:01:52;101413.41;;;20.05;100.00
18436;BME280;9346;52.006;4.720;2023-06-10T05:04:21;101415.56;;;20.08;100.00
18436;BME280;9346;52.006;4.720;2023-06-10T05:06:48;101416.38;;;20.09;100.00
18436;BME280;9346;52.006;4.720;2023-06-10T05:09:15;101416.59;;;20.12;100.00
18436;BME280;9346;52.006;4.720;2023-06-10T05:11:42;101424.31;;;20.15;100.00
18436;BME280;9346;52.006;4.720;2023-06-10T05:14:10;101416.78;;;20.16;100.00
18436;BME280;9346;52.006;4.720;2023-06-10T05:16:37;101412.16;;;20.20;100.00
18436;BME280;9346;52.006;4.720;2023-06-10T05:19:04;101417.94;;;20.23;100.00
18436;BME280;9346;52.006;4.720;2023-06-10T05:21:32;101414.19;;;20.28;100.00
18436;BME280;9346;52.006;4.720;2023-06-10T05:23:59;101418.81;;;20.32;100.00
18436;BME280;9346;52.006;4.720;2023-06-10T05:26:26;101422.59;;;20.36;100.00
18436;BME280;9346;52.006;4.720;2023-06-10T05:28:54;101412.38;;;20.40;100.00
18436;BME280;9346;52.006;4.720;2023-06-10T05:31:21;101417.84;;;20.45;100.00
18436;BME280;9346;52.006;4.720;2023-06-10T05:33:48;101417.19;;;20.48;100.00
18436;BME280;9346;52.006;4.720;2023-06-10T05:36:15;101424.75;;;20.56;100.00
18436;BME280;9346;52.006;4.720;2023-06-10T05:38:46;101420.66;;;20.62;100.00
18436;BME280;9346;52.006;4.720;2023-06-10T05:41:13;101418.19;;;20.69;100.00
18436;BME280;9346;52.006;4.720;2023-06-10T05:43:40;101415.06;;;20.79;100.00
18436;BME280;9346;52.006;4.720;2023-06-10T05:46:07;101429.41;;;20.86;100.00
18436;BME280;9346;52.006;4.720;2023-06-10T05:48:34;101427.28;;;20.92;100.00
18436;BME280;9346;52.006;4.720;2023-06-10T05:51:01;101427.97;;;20.97;100.00
18436;BME280;9346;52.006;4.720;2023-06-10T05:53:28;101433.25;;;21.07;100.00
18436;BME280;9346;52.006;4.720;2023-06-10T05:55:56;101439.50;;;21.13;100.00
18436;BME280;9346;52.006;4.720;2023-06-10T05:58:24;101432.25;;;21.20;100.00
18436;BME280;9346;52.006;4.720;2023-06-10T06:00:50;101436.53;;;21.26;100.00
18436;BME280;9346;52.006;4.720;2023-06-10T06:03:17;101435.66;;;21.34;100.00
18436;BME280;9346;52.006;4.720;2023-06-10T06:05:44;101434.34;;;21.40;100.00
18436;BME280;9346;52.006;4.720;2023-06-10T06:08:11;101435.81;;;21.46;100.00
18436;BME280;9346;52.006;4.720;2023-06-10T06:10:42;101425.59;;;21.50;100.00
18436;BME280;9346;52.006;4.720;2023-06-10T06:13:11;101425.91;;;21.57;100.00
18436;BME280;9346;52.006;4.720;2023-06-10T06:15:38;101426.22;;;21.64;100.00
18436;BME280;9346;52.006;4.720;2023-06-10T06:18:05;101432.66;;;21.73;100.00
18436;BME280;9346;52.006;4.720;2023-06-10T06:20:31;101432.66;;;21.82;100.00
18436;BME280;9346;52.006;4.720;2023-06-10T06:22:58;101427.97;;;21.94;100.00
18436;BME280;9346;52.006;4.720;2023-06-10T06:25:25;101436.00;;;22.05;100.00
18436;BME280;9346;52.006;4.720;2023-06-10T06:27:52;101436.28;;;22.12;100.00
18436;BME280;9346;52.006;4.720;2023-06-10T06:30:20;101432.78;;;22.23;100.00
18436;BME280;9346;52.006;4.720;2023-06-10T06:32:47;101432.25;;;22.30;100.00
18436;BME280;9346;52.006;4.720;2023-06-10T06:35:14;101432.03;;;22.43;100.00
18436;BME280;9346;52.006;4.720;2023-06-10T06:37:41;101432.28;;;22.59;100.00
18436;BME280;9346;52.006;4.720;2023-06-10T06:40:08;101435.53;;;22.69;100.00
18436;BME280;9346;52.006;4.720;2023-06-10T06:42:35;101438.72;;;22.80;100.00
18436;BME280;9346;52.006;4.720;2023-06-10T06:45:03;101444.56;;;22.95;100.00
18436;BME280;9346;52.006;4.720;2023-06-10T06:47:32;101445.94;;;23.10;100.00
18436;BME280;9346;52.006;4.720;2023-06-10T06:49:59;101453.94;;;23.20;100.00
18436;BME280;9346;52.006;4.720;2023-06-10T06:52:27;101451.09;;;23.28;100.00
18436;BME280;9346;52.006;4.720;2023-06-10T06:54:54;101450.66;;;23.38;100.00
18436;BME280;9346;52.006;4.720;2023-06-10T06:57:21;101451.75;;;23.46;100.00
18436;BME280;9346;52.006;4.720;2023-06-10T06:59:48;101456.59;;;23.57;100.00
18436;BME280;9346;52.006;4.720;2023-06-10T07:02:15;101459.88;;;23.59;100.00
18436;BME280;9346;52.006;4.720;2023-06-10T07:04:45;101457.91;;;23.72;100.00
18436;BME280;9346;52.006;4.720;2023-06-10T07:07:14;101449.28;;;23.89;100.00
18436;BME280;9346;52.006;4.720;2023-06-10T07:09:41;101460.59;;;24.01;100.00
18436;BME280;9346;52.006;4.720;2023-06-10T07:12:08;101458.50;;;24.10;100.00
18436;BME280;9346;52.006;4.720;2023-06-10T07:14:36;101459.69;;;24.21;100.00
18436;BME280;9346;52.006;4.720;2023-06-10T07:17:03;101459.81;;;24.25;100.00
18436;BME280;9346;52.006;4.720;2023-06-10T07:19:30;101453.22;;;24.33;100.00
18436;BME280;9346;52.006;4.720;2023-06-10T07:21:59;101461.81;;;24.36;100.00
18436;BME280;9346;52.006;4.720;2023-06-10T07:24:26;101450.78;;;24.43;100.00
18436;BME280;9346;52.006;4.720;2023-06-10T07:26:54;101450.41;;;24.57;100.00
18436;BME280;9346;52.006;4.720;2023-06-10T07:29:20;101466.03;;;24.66;100.00
18436;BME280;9346;52.006;4.720;2023-06-10T07:31:47;101462.50;;;24.69;100.00
18436;BME280;9346;52.006;4.720;2023-06-10T07:34:14;101468.38;;;24.76;100.00
18436;BME280;9346;52.006;4.720;2023-06-10T07:36:41;101467.44;;;24.84;100.00
18436;BME280;9346;52.006;4.720;2023-06-10T07:39:10;101458.63;;;24.86;100.00
18436;BME280;9346;52.006;4.720;2023-06-10T07:41:37;101462.00;;;24.91;100.00
18436;BME280;9346;52.006;4.720;2023-06-10T07:44:03;101469.50;;;24.99;100.00
18436;BME280;9346;52.006;4.720;2023-06-10T07:46:30;101475.25;;;25.03;100.00
18436;BME280;9346;52.006;4.720;2023-06-10T07:48:57;101474.63;;;25.09;100.00
18436;BME280;9346;52.006;4.720;2023-06-10T07:51:24;101474.88;;;25.16;100.00
18436;BME280;9346;52.006;4.720;2023-06-10T07:53:52;101469.53;;;25.27;100.00
18436;BME280;9346;52.006;4.720;2023-06-10T07:56:20;101470.16;;;25.32;100.00
18436;BME280;9346;52.006;4.720;2023-06-10T07:58:47;101471.31;;;25.31;100.00
18436;BME280;9346;52.006;4.720;2023-06-10T08:01:14;101467.34;;;25.32;100.00
18436;BME280;9346;52.006;4.720;2023-06-10T08:03:42;101467.97;;;25.41;100.00
18436;BME280;9346;52.006;4.720;2023-06-10T08:06:09;101468.66;;;25.50;100.00
18436;BME280;9346;52.006;4.720;2023-06-10T08:08:36;101467.94;;;25.53;100.00
18436;BME280;9346;52.006;4.720;2023-06-10T08:11:07;101469.44;;;25.63;100.00
18436;BME280;9346;52.006;4.720;2023-06-10T08:13:35;101468.13;;;25.60;100.00
18436;BME280;9346;52.006;4.720;2023-06-10T08:16:03;101470.94;;;25.60;100.00
18436;BME280;9346;52.006;4.720;2023-06-10T08:18:31;101473.41;;;25.62;100.00
18436;BME280;9346;52.006;4.720;2023-06-10T08:20:58;101473.53;;;25.65;100.00
18436;BME280;9346;52.006;4.720;2023-06-10T08:23:25;101476.53;;;25.72;100.00
18436;BME280;9346;52.006;4.720;2023-06-10T08:25:52;101474.91;;;25.71;100.00
18436;BME280;9346;52.006;4.720;2023-06-10T08:28:20;101475.25;;;25.70;100.00
18436;BME280;9346;52.006;4.720;2023-06-10T08:30:49;101474.44;;;25.69;100.00
18436;BME280;9346;52.006;4.720;2023-06-10T08:33:16;101472.88;;;25.72;100.00
18436;BME280;9346;52.006;4.720;2023-06-10T08:35:43;101481.25;;;25.68;100.00
18436;BME280;9346;52.006;4.720;2023-06-10T08:38:10;101473.97;;;25.67;100.00
18436;BME280;9346;52.006;4.720;2023-06-10T08:40:37;101484.16;;;25.72;100.00
18436;BME280;9346;52.006;4.720;2023-06-10T08:43:06;101474.91;;;25.71;100.00
18436;BME280;9346;52.006;4.720;2023-06-10T08:48:55;101475.28;;;25.85;100.00
18436;BME280;9346;52.006;4.720;2023-06-10T08:51:27;101481.75;;;25.86;100.00
18436;BME280;9346;52.006;4.720;2023-06-10T08:54:01;101480.56;;;25.87;100.00
18436;BME280;9346;52.006;4.720;2023-06-10T08:56:29;101475.41;;;25.89;100.00
18436;BME280;9346;52.006;4.720;2023-06-10T08:58:57;101481.94;;;25.93;100.00
18436;BME280;9346;52.006;4.720;2023-06-10T09:01:26;101477.56;;;25.95;100.00
18436;BME280;9346;52.006;4.720;2023-06-10T09:03:54;101479.69;;;25.98;100.00
18436;BME280;9346;52.006;4.720;2023-06-10T09:06:22;101482.53;;;25.98;100.00
18436;BME280;9346;52.006;4.720;2023-06-10T09:08:50;101474.78;;;26.11;100.00
18436;BME280;9346;52.006;4.720;2023-06-10T09:11:17;101475.53;;;26.24;100.00
18436;BME280;9346;52.006;4.720;2023-06-10T09:13:44;101476.19;;;26.33;100.00
18436;BME280;9346;52.006;4.720;2023-06-10T09:16:12;101479.53;;;26.38;100.00
18436;BME280;9346;52.006;4.720;2023-06-10T09:18:39;101478.63;;;26.50;99.66
18436;BME280;9346;52.006;4.720;2023-06-10T09:21:07;101484.81;;;26.55;100.00
18436;BME280;9346;52.006;4.720;2023-06-10T09:23:35;101477.16;;;26.56;98.92
18436;BME280;9346;52.006;4.720;2023-06-10T09:26:08;101486.00;;;26.54;98.77
18436;BME280;9346;52.006;4.720;2023-06-10T09:28:35;101478.41;;;26.58;99.13
18436;BME280;9346;52.006;4.720;2023-06-10T09:31:03;101478.34;;;26.70;97.73
18436;BME280;9346;52.006;4.720;2023-06-10T09:33:33;101471.28;;;26.80;97.53
18436;BME280;9346;52.006;4.720;2023-06-10T09:36:03;101478.78;;;26.88;99.39
18436;BME280;9346;52.006;4.720;2023-06-10T09:38:33;101484.63;;;26.98;96.81
18436;BME280;9346;52.006;4.720;2023-06-10T09:41:00;101475.06;;;27.03;96.07
18436;BME280;9346;52.006;4.720;2023-06-10T09:43:41;101484.63;;;27.14;95.46
18436;BME280;9346;52.006;4.720;2023-06-10T09:46:14;101493.53;;;27.16;95.30
18436;BME280;9346;52.006;4.720;2023-06-10T09:48:42;101483.50;;;27.18;94.94
18436;BME280;9346;52.006;4.720;2023-06-10T09:51:12;101480.31;;;27.20;95.22
18436;BME280;9346;52.006;4.720;2023-06-10T09:53:41;101478.09;;;27.29;94.43
18436;BME280;9346;52.006;4.720;2023-06-10T09:56:08;101479.75;;;27.30;94.34
18436;BME280;9346;52.006;4.720;2023-06-10T09:58:36;101484.19;;;27.31;94.89
18436;BME280;9346;52.006;4.720;2023-06-10T10:01:06;101482.72;;;27.37;95.67
18436;BME280;9346;52.006;4.720;2023-06-10T10:03:33;101480.88;;;27.44;97.92
18436;BME280;9346;52.006;4.720;2023-06-10T10:06:00;101478.63;;;27.53;95.81
18436;BME280;9346;52.006;4.720;2023-06-10T10:08:27;101476.19;;;27.52;95.91
18436;BME280;9346;52.006;4.720;2023-06-10T10:10:58;101472.97;;;27.53;91.92
18436;BME280;9346;52.006;4.720;2023-06-10T10:13:26;101476.31;;;27.59;91.13
18436;BME280;9346;52.006;4.720;2023-06-10T10:15:56;101470.34;;;27.64;91.01
18436;BME280;9346;52.006;4.720;2023-06-10T10:18:29;101469.59;;;27.67;92.28
18436;BME280;9346;52.006;4.720;2023-06-10T10:21:00;101480.00;;;27.82;93.00
18436;BME280;9346;52.006;4.720;2023-06-10T10:23:34;101473.25;;;27.86;92.48
18436;BME280;9346;52.006;4.720;2023-06-10T10:26:07;101478.53;;;27.88;92.03
18436;BME280;9346;52.006;4.720;2023-06-10T10:28:41;101473.25;;;27.86;91.29
18436;BME280;9346;52.006;4.720;2023-06-10T10:31:16;101466.09;;;27.92;91.94
18436;BME280;9346;52.006;4.720;2023-06-10T10:33:54;101467.53;;;28.05;91.82
18436;BME280;9346;52.006;4.720;2023-06-10T10:36:22;101466.78;;;28.08;91.61
18436;BME280;9346;52.006;4.720;2023-06-10T10:38:49;101462.19;;;28.23;89.46
18436;BME280;9346;52.006;4.720;2023-06-10T10:41:19;101459.78;;;28.25;88.71
18436;BME280;9346;52.006;4.720;2023-06-10T10:43:47;101461.28;;;28.19;89.33
18436;BME280;9346;52.006;4.720;2023-06-10T10:46:17;101460.91;;;28.21;89.11
18436;BME280;9346;52.006;4.720;2023-06-10T10:48:44;101453.44;;;28.32;87.77
18436;BME280;9346;52.006;4.720;2023-06-10T10:51:12;101451.84;;;28.34;87.14
18436;BME280;9346;52.006;4.720;2023-06-10T10:53:42;101461.81;;;28.47;83.66
18436;BME280;9346;52.006;4.720;2023-06-10T10:56:13;101459.09;;;28.54;83.61
18436;BME280;9346;52.006;4.720;2023-06-10T10:59:02;101458.81;;;28.63;84.90
18436;BME280;9346;52.006;4.720;2023-06-10T11:01:39;101454.84;;;28.67;84.86
18436;BME280;9346;52.006;4.720;2023-06-10T11:04:07;101459.06;;;28.77;81.26
18436;BME280;9346;52.006;4.720;2023-06-10T11:06:34;101457.47;;;28.79;80.62
18436;BME280;9346;52.006;4.720;2023-06-10T11:09:25;101448.19;;;28.82;81.67
18436;BME280;9346;52.006;4.720;2023-06-10T11:11:52;101448.38;;;28.96;80.23
18436;BME280;9346;52.006;4.720;2023-06-10T11:14:28;101444.38;;;28.97;78.23
18436;BME280;9346;52.006;4.720;2023-06-10T11:16:57;101444.84;;;29.03;79.09
18436;BME280;9346;52.006;4.720;2023-06-10T11:19:32;101442.84;;;29.03;78.61
18436;BME280;9346;52.006;4.720;2023-06-10T11:22:01;101445.22;;;29.01;78.73
18436;BME280;9346;52.006;4.720;2023-06-10T11:24:29;101436.78;;;29.05;78.48
18436;BME280;9346;52.006;4.720;2023-06-10T11:27:17;101440.16;;;29.14;76.48
18436;BME280;9346;52.006;4.720;2023-06-10T11:30:17;101435.31;;;29.14;77.41
18436;BME280;9346;52.006;4.720;2023-06-10T11:32:50;101434.63;;;29.24;75.94
18436;BME280;9346;52.006;4.720;2023-06-10T11:35:18;101433.91;;;29.31;76.28
18436;BME280;9346;52.006;4.720;2023-06-10T11:37:46;101427.88;;;29.36;73.79
18436;BME280;9346;52.006;4.720;2023-06-10T11:40:13;101430.69;;;29.32;72.96
18436;BME280;9346;52.006;4.720;2023-06-10T11:42:42;101433.91;;;29.31;72.42
18436;BME280;9346;52.006;4.720;2023-06-10T11:45:14;101434.00;;;29.41;72.77
18436;BME280;9346;52.006;4.720;2023-06-10T11:47:55;101428.41;;;29.48;74.00
18436;BME280;9346;52.006;4.720;2023-06-10T11:50:28;101433.41;;;29.58;74.29
18436;BME280;9346;52.006;4.720;2023-06-10T11:52:55;101434.59;;;29.57;73.99
18436;BME280;9346;52.006;4.720;2023-06-10T11:55:24;101423.69;;;29.59;72.14
18436;BME280;9346;52.006;4.720;2023-06-10T11:57:51;101429.38;;;29.59;72.97
18436;BME280;9346;52.006;4.720;2023-06-10T12:00:24;101435.50;;;29.61;69.97
18436;BME280;9346;52.006;4.720;2023-06-10T12:02:56;101423.34;;;29.64;67.35
18436;BME280;9346;52.006;4.720;2023-06-10T12:05:23;101424.63;;;29.70;67.90
18436;BME280;9346;52.006;4.720;2023-06-10T12:08:08;101426.38;;;29.78;68.57
18436;BME280;9346;52.006;4.720;2023-06-10T12:10:39;101425.59;;;29.81;68.52
18436;BME280;9346;52.006;4.720;2023-06-10T12:13:07;101421.59;;;29.89;66.13
18436;BME280;9346;52.006;4.720;2023-06-10T12:15:35;101405.34;;;29.86;67.71
18436;BME280;9346;52.006;4.720;2023-06-10T12:18:03;101411.06;;;29.90;70.92
18436;BME280;9346;52.006;4.720;2023-06-10T12:20:30;101409.84;;;29.91;70.95
18436;BME280;9346;52.006;4.720;2023-06-10T12:22:59;101414.34;;;29.95;68.06
18436;BME280;9346;52.006;4.720;2023-06-10T12:25:27;101407.91;;;29.98;66.98
18436;BME280;9346;52.006;4.720;2023-06-10T12:27:56;101408.72;;;30.02;66.52
18436;BME280;9346;52.006;4.720;2023-06-10T12:30:25;101416.47;;;30.05;64.88
18436;BME280;9346;52.006;4.720;2023-06-10T12:32:55;101414.84;;;30.04;63.16
18436;BME280;9346;52.006;4.720;2023-06-10T12:35:23;101413.69;;;30.09;64.99
18436;BME280;9346;52.006;4.720;2023-06-10T12:37:55;101404.38;;;30.15;65.04
18436;BME280;9346;52.006;4.720;2023-06-10T12:40:25;101414.91;;;30.11;65.79
18436;BME280;9346;52.006;4.720;2023-06-10T12:42:53;101400.75;;;30.15;65.31
18436;BME280;9346;52.006;4.720;2023-06-10T12:45:26;101403.63;;;30.19;65.96
18436;BME280;9346;52.006;4.720;2023-06-10T12:48:04;101404.94;;;30.28;64.68
18436;BME280;9346;52.006;4.720;2023-06-10T12:50:32;101410.63;;;30.32;66.26
18436;BME280;9346;52.006;4.720;2023-06-10T12:53:00;101408.66;;;30.39;65.15
18436;BME280;9346;52.006;4.720;2023-06-10T12:55:26;101411.16;;;30.44;65.86
18436;BME280;9346;52.006;4.720;2023-06-10T12:57:54;101407.97;;;30.53;67.69
18436;BME280;9346;52.006;4.720;2023-06-10T13:00:22;101414.03;;;30.55;63.84
18436;BME280;9346;52.006;4.720;2023-06-10T13:02:51;101411.22;;;30.55;62.56